Time;durP1;ratioP1;P1;durP2;ratioP2;P2;SDS_P1;SDS_P2;PMS_P1;PMS_P2;Temp;Humidity;BMP_temperature;BMP_pressure;BME280_temperature;BME280_humidity;BME280_pressure;Samples;Min_cycle;Max_cycle;Signal;HPM_P1;HPM_P2
2024/04/04 00:00:14;;;;;;;4.00;1.10;;;;;;;;;;4949711;28;93266;-74
2024/04/04 00:02:40;;;;;;;5.25;1.10;;;;;;;;;;4947930;28;95278;-75
2024/04/04 00:05:06;;;;;;;4.07;1.10;;;;;;;;;;4949374;28;95151;-74
2024/04/04 00:07:32;;;;;;;4.32;0.90;;;;;;;;;;4945656;28;93056;-75
2024/04/04 00:10:01;;;;;;;2.78;1.10;;;;;;;;;;4949300;28;92897;-74
2024/04/04 00:12:26;;;;;;;1.95;0.80;;;;;;;;;;4949403;28;92754;-74
2024/04/04 00:14:53;;;;;;;4.60;1.13;;;;;;;;;;4952639;28;93105;-74
2024/04/04 00:17:19;;;;;;;6.03;1.13;;;;;;;;;;4949451;28;92889;-75
2024/04/04 00:19:45;;;;;;;4.68;1.10;;;;;;;;;;4949187;28;92577;-75
2024/04/04 00:22:13;;;;;;;5.22;1.10;;;;;;;;;;4933767;28;92597;-74
2024/04/04 00:24:39;;;;;;;4.03;1.20;;;;;;;;;;4949453;28;92872;-75
2024/04/04 00:27:05;;;;;;;4.03;1.10;;;;;;;;;;4931653;28;95604;-75
2024/04/04 00:29:30;;;;;;;3.90;1.15;;;;;;;;;;4948158;28;92877;-75
2024/04/04 00:31:56;;;;;;;5.60;0.98;;;;;;;;;;4932475;28;92848;-75
2024/04/04 00:34:21;;;;;;;3.92;1.00;;;;;;;;;;4949192;28;93672;-75
2024/04/04 00:36:47;;;;;;;3.63;1.02;;;;;;;;;;4952548;28;92823;-75
2024/04/04 00:39:12;;;;;;;5.40;1.10;;;;;;;;;;4949721;28;93178;-75
2024/04/04 00:41:38;;;;;;;3.90;0.88;;;;;;;;;;4948268;28;92452;-75
2024/04/04 00:44:04;;;;;;;3.10;1.02;;;;;;;;;;4932975;28;92892;-75
2024/04/04 00:46:30;;;;;;;4.20;1.30;;;;;;;;;;4948853;28;93022;-75
2024/04/04 00:48:56;;;;;;;4.22;1.00;;;;;;;;;;4948470;28;92535;-75
2024/04/04 00:51:21;;;;;;;3.10;0.93;;;;;;;;;;4947377;28;95642;-74
2024/04/04 00:53:47;;;;;;;4.10;1.00;;;;;;;;;;4948306;28;93128;-74
2024/04/04 00:56:13;;;;;;;2.97;0.80;;;;;;;;;;4949514;28;92670;-75
2024/04/04 00:58:39;;;;;;;2.95;1.02;;;;;;;;;;4951907;28;95151;-74
2024/04/04 01:01:04;;;;;;;3.15;1.20;;;;;;;;;;4932469;28;92487;-74
2024/04/04 01:03:30;;;;;;;3.40;0.93;;;;;;;;;;4947871;28;92605;-75
2024/04/04 01:05:55;;;;;;;3.75;0.90;;;;;;;;;;4932133;28;92892;-74
2024/04/04 01:08:22;;;;;;;5.13;1.33;;;;;;;;;;4932186;28;91787;-75
2024/04/04 01:10:47;;;;;;;4.30;1.10;;;;;;;;;;4949224;28;92596;-75
2024/04/04 01:13:13;;;;;;;4.78;0.98;;;;;;;;;;4948607;28;92650;-75
2024/04/04 01:15:39;;;;;;;2.85;1.17;;;;;;;;;;4946641;28;94988;-74
2024/04/04 01:18:04;;;;;;;4.47;0.95;;;;;;;;;;4951494;28;95020;-73
2024/04/04 01:20:30;;;;;;;4.15;0.88;;;;;;;;;;4948907;28;92720;-74
2024/04/04 01:22:55;;;;;;;3.72;1.00;;;;;;;;;;4948527;28;92936;-74
2024/04/04 01:25:21;;;;;;;4.07;0.90;;;;;;;;;;4948078;28;93211;-74
2024/04/04 01:27:49;;;;;;;3.55;1.20;;;;;;;;;;4947375;28;92784;-75
2024/04/04 01:30:18;;;;;;;4.68;1.20;;;;;;;;;;4946458;28;93576;-73
2024/04/04 01:32:43;;;;;;;5.15;1.23;;;;;;;;;;4948773;28;92356;-73
2024/04/04 01:35:09;;;;;;;3.70;1.20;;;;;;;;;;4948297;28;92877;-73
2024/04/04 01:37:34;;;;;;;4.57;1.15;;;;;;;;;;4947690;28;92483;-73
2024/04/04 01:40:00;;;;;;;4.88;1.23;;;;;;;;;;4949311;28;96463;-73
2024/04/04 01:42:26;;;;;;;4.40;1.00;;;;;;;;;;4930582;28;95214;-75
2024/04/04 01:44:51;;;;;;;5.45;1.35;;;;;;;;;;4948242;28;93178;-74
2024/04/04 01:47:16;;;;;;;3.63;1.00;;;;;;;;;;4947744;28;99603;-74
2024/04/04 01:49:42;;;;;;;4.93;1.42;;;;;;;;;;4948378;28;93138;-73
2024/04/04 01:52:07;;;;;;;3.58;1.00;;;;;;;;;;4932037;28;93358;-72
2024/04/04 01:54:33;;;;;;;3.70;1.10;;;;;;;;;;4938199;28;92959;-75
2024/04/04 01:56:59;;;;;;;5.43;1.20;;;;;;;;;;4948624;28;92962;-75
2024/04/04 01:59:24;;;;;;;2.63;0.80;;;;;;;;;;4931757;28;95744;-73
2024/04/04 02:01:49;;;;;;;4.35;1.27;;;;;;;;;;4950667;28;92864;-73
2024/04/04 02:04:15;;;;;;;2.17;0.85;;;;;;;;;;4945470;28;96502;-73
2024/04/04 02:06:40;;;;;;;3.58;1.10;;;;;;;;;;4947107;28;93466;-74
2024/04/04 02:09:07;;;;;;;3.42;0.90;;;;;;;;;;4933593;28;92545;-73
2024/04/04 02:11:34;;;;;;;4.65;1.17;;;;;;;;;;4927967;28;93678;-73
2024/04/04 02:13:59;;;;;;;3.05;1.05;;;;;;;;;;4928451;28;92777;-75
2024/04/04 02:16:25;;;;;;;4.05;1.10;;;;;;;;;;4928155;28;92820;-73
2024/04/04 02:18:51;;;;;;;3.47;1.20;;;;;;;;;;4927461;28;93176;-73
2024/04/04 02:21:16;;;;;;;4.20;1.00;;;;;;;;;;4928783;28;92082;-74
2024/04/04 02:23:42;;;;;;;3.05;1.00;;;;;;;;;;4916836;28;92852;-73
2024/04/04 02:26:08;;;;;;;4.10;1.20;;;;;;;;;;4948287;28;92513;-75
2024/04/04 02:28:33;;;;;;;4.78;0.90;;;;;;;;;;4946288;28;94886;-75
2024/04/04 02:30:59;;;;;;;2.83;1.10;;;;;;;;;;4947336;28;93932;-75
2024/04/04 02:33:24;;;;;;;5.97;1.40;;;;;;;;;;4947422;28;93354;-74
2024/04/04 02:35:59;;;;;;;4.18;1.10;;;;;;;;;;4947067;28;92867;-74
2024/04/04 02:38:25;;;;;;;2.50;1.00;;;;;;;;;;4947587;28;93114;-74
2024/04/04 02:40:50;;;;;;;6.40;1.13;;;;;;;;;;4947799;28;92840;-75
2024/04/04 02:43:16;;;;;;;2.83;0.82;;;;;;;;;;4946976;28;92763;-75
2024/04/04 02:45:42;;;;;;;3.47;0.85;;;;;;;;;;4951102;28;92512;-75
2024/04/04 02:48:08;;;;;;;4.85;1.10;;;;;;;;;;4947683;28;92549;-75
2024/04/04 02:50:34;;;;;;;2.95;1.13;;;;;;;;;;4947290;28;93303;-74
2024/04/04 02:52:59;;;;;;;3.15;1.20;;;;;;;;;;4945957;28;95068;-74
2024/04/04 02:55:24;;;;;;;4.03;1.00;;;;;;;;;;4946136;28;95336;-74
2024/04/04 02:57:50;;;;;;;3.17;0.95;;;;;;;;;;4949553;28;93123;-74
2024/04/04 03:00:17;;;;;;;4.07;0.88;;;;;;;;;;4950728;28;92898;-74
2024/04/04 03:02:43;;;;;;;2.55;1.05;;;;;;;;;;4950641;28;92833;-73
2024/04/04 03:05:09;;;;;;;2.33;1.20;;;;;;;;;;4950542;28;93253;-73
2024/04/04 03:07:35;;;;;;;4.50;0.85;;;;;;;;;;4953086;28;92964;-75
2024/04/04 03:10:00;;;;;;;3.95;1.02;;;;;;;;;;4950574;28;93259;-75
2024/04/04 03:12:26;;;;;;;2.25;1.20;;;;;;;;;;4950417;28;92918;-75
2024/04/04 03:14:51;;;;;;;4.30;0.90;;;;;;;;;;4950229;28;92759;-74
2024/04/04 03:17:17;;;;;;;2.60;0.73;;;;;;;;;;4948411;28;95540;-75
2024/04/04 03:19:42;;;;;;;2.50;0.90;;;;;;;;;;4947485;28;92550;-75
2024/04/04 03:22:08;;;;;;;3.72;1.10;;;;;;;;;;4930942;28;92835;-75
2024/04/04 03:24:36;;;;;;;3.33;1.15;;;;;;;;;;4930951;28;92955;-75
2024/04/04 03:27:02;;;;;;;2.40;0.80;;;;;;;;;;4933472;28;92446;-75
2024/04/04 03:29:27;;;;;;;3.95;1.00;;;;;;;;;;4930164;28;93103;-75
2024/04/04 03:31:53;;;;;;;4.32;0.80;;;;;;;;;;4950600;28;92883;-75
2024/04/04 03:34:18;;;;;;;2.95;1.08;;;;;;;;;;4950943;28;92590;-75
2024/04/04 03:36:44;;;;;;;3.47;0.90;;;;;;;;;;4950452;28;93149;-75
2024/04/04 03:39:09;;;;;;;2.55;1.15;;;;;;;;;;4950309;28;92696;-75
2024/04/04 03:41:36;;;;;;;2.33;0.70;;;;;;;;;;4949602;28;95327;-75
2024/04/04 03:44:01;;;;;;;4.85;1.10;;;;;;;;;;4953509;28;92883;-75
2024/04/04 03:46:27;;;;;;;4.00;1.00;;;;;;;;;;4936946;28;92495;-75
2024/04/04 03:48:52;;;;;;;1.80;1.00;;;;;;;;;;4956723;28;92800;-76
2024/04/04 03:51:18;;;;;;;3.53;0.90;;;;;;;;;;4951744;28;92482;-75
2024/04/04 03:53:43;;;;;;;1.40;0.70;;;;;;;;;;4950121;28;92709;-75
2024/04/04 03:56:09;;;;;;;2.15;0.90;;;;;;;;;;4949764;28;93117;-75
2024/04/04 03:58:35;;;;;;;1.83;0.80;;;;;;;;;;4950083;28;91802;-75
2024/04/04 04:01:00;;;;;;;4.43;1.10;;;;;;;;;;4949720;28;92731;-75
2024/04/04 04:03:26;;;;;;;2.15;0.95;;;;;;;;;;4949021;28;93306;-75
2024/04/04 04:05:51;;;;;;;3.53;1.20;;;;;;;;;;4946658;28;94940;-75
2024/04/04 04:08:17;;;;;;;3.25;0.88;;;;;;;;;;4949907;28;95122;-74
2024/04/04 04:10:42;;;;;;;2.38;1.00;;;;;;;;;;4952794;28;92491;-74
2024/04/04 04:13:08;;;;;;;3.25;0.90;;;;;;;;;;4949722;28;92744;-74
2024/04/04 04:15:33;;;;;;;2.25;1.10;;;;;;;;;;4949102;28;93068;-74
2024/04/04 04:17:59;;;;;;;2.78;1.00;;;;;;;;;;4949766;28;93065;-74
2024/04/04 04:23:09;;;;;;;3.40;1.15;;;;;;;;;;4930551;28;92377;-75
2024/04/04 04:25:34;;;;;;;2.28;0.98;;;;;;;;;;4929761;28;92927;-75
2024/04/04 04:28:00;;;;;;;3.40;1.10;;;;;;;;;;4929950;28;92669;-75
2024/04/04 04:30:25;;;;;;;3.30;1.05;;;;;;;;;;4936112;28;95426;-74
2024/04/04 04:32:51;;;;;;;2.65;0.80;;;;;;;;;;4952127;28;92541;-75
2024/04/04 04:35:22;;;;;;;2.15;0.90;;;;;;;;;;4949462;28;93046;-75
2024/04/04 04:37:48;;;;;;;2.92;1.20;;;;;;;;;;4932302;28;92946;-75
2024/04/04 04:40:13;;;;;;;3.08;0.95;;;;;;;;;;4949528;28;93102;-75
2024/04/04 04:42:39;;;;;;;2.95;0.90;;;;;;;;;;4948592;28;92960;-75
2024/04/04 04:45:04;;;;;;;3.28;1.10;;;;;;;;;;4949694;28;92973;-74
2024/04/04 04:47:30;;;;;;;2.38;0.90;;;;;;;;;;4947210;28;93121;-74
2024/04/04 04:49:55;;;;;;;1.83;0.90;;;;;;;;;;4948850;28;93725;-74
2024/04/04 04:52:21;;;;;;;2.58;0.90;;;;;;;;;;4948494;28;92561;-75
2024/04/04 04:54:46;;;;;;;1.60;1.00;;;;;;;;;;4914305;28;95021;-75
2024/04/04 04:57:12;;;;;;;2.42;0.80;;;;;;;;;;4943931;28;92577;-75
2024/04/04 04:59:37;;;;;;;3.03;1.00;;;;;;;;;;4949277;28;93050;-75
2024/04/04 05:02:03;;;;;;;1.58;0.80;;;;;;;;;;4948891;28;93255;-74
2024/04/04 05:04:29;;;;;;;2.65;0.90;;;;;;;;;;4949566;28;92637;-75
2024/04/04 05:06:54;;;;;;;2.33;0.80;;;;;;;;;;4948957;28;93166;-74
2024/04/04 05:09:20;;;;;;;2.58;0.90;;;;;;;;;;4948551;28;93111;-74
2024/04/04 05:11:45;;;;;;;3.00;1.13;;;;;;;;;;4948684;28;92400;-74
2024/04/04 05:14:12;;;;;;;1.42;0.70;;;;;;;;;;4948435;28;92923;-74
2024/04/04 05:16:39;;;;;;;2.20;0.90;;;;;;;;;;4949736;28;93117;-75
2024/04/04 05:19:04;;;;;;;2.35;1.00;;;;;;;;;;4947163;28;95337;-74
2024/04/04 05:21:30;;;;;;;2.78;0.85;;;;;;;;;;4947916;28;93240;-74
2024/04/04 05:23:55;;;;;;;3.47;0.98;;;;;;;;;;4947854;28;92981;-74
2024/04/04 05:26:21;;;;;;;2.35;0.90;;;;;;;;;;4948264;28;92799;-74
2024/04/04 05:28:51;;;;;;;1.30;0.90;;;;;;;;;;4931993;28;94342;-74
2024/04/04 05:31:16;;;;;;;2.40;0.82;;;;;;;;;;4920190;28;92912;-74
2024/04/04 05:33:42;;;;;;;1.65;1.05;;;;;;;;;;4928999;28;92625;-74
2024/04/04 05:36:07;;;;;;;3.00;1.10;;;;;;;;;;4938204;28;93028;-74
2024/04/04 05:38:33;;;;;;;0.98;0.80;;;;;;;;;;4948842;28;93133;-74
2024/04/04 05:41:03;;;;;;;2.63;1.20;;;;;;;;;;4948234;28;92960;-74
2024/04/04 05:43:29;;;;;;;1.83;1.00;;;;;;;;;;4944681;28;94899;-74
2024/04/04 05:45:54;;;;;;;3.05;1.02;;;;;;;;;;4947676;28;95143;-74
2024/04/04 05:48:20;;;;;;;2.25;0.93;;;;;;;;;;4947387;28;93765;-74
2024/04/04 05:50:45;;;;;;;2.47;1.02;;;;;;;;;;4948238;28;93208;-74
2024/04/04 05:53:11;;;;;;;2.35;0.90;;;;;;;;;;4948006;28;92855;-75
2024/04/04 05:55:37;;;;;;;1.70;0.90;;;;;;;;;;4946858;28;93170;-73
2024/04/04 05:58:02;;;;;;;1.25;0.80;;;;;;;;;;4951295;28;92528;-75
2024/04/04 06:00:28;;;;;;;2.17;0.90;;;;;;;;;;4948606;28;91706;-75
2024/04/04 06:02:53;;;;;;;2.03;0.90;;;;;;;;;;4948346;28;93510;-75
2024/04/04 06:05:19;;;;;;;2.03;0.80;;;;;;;;;;4948158;28;93833;-75
2024/04/04 06:07:44;;;;;;;3.00;0.98;;;;;;;;;;4945053;28;95998;-75
2024/04/04 06:10:09;;;;;;;1.95;1.15;;;;;;;;;;4947542;28;92900;-76
2024/04/04 06:12:35;;;;;;;1.63;0.88;;;;;;;;;;4946755;28;93002;-75
2024/04/04 06:15:00;;;;;;;2.38;0.80;;;;;;;;;;4946981;28;94363;-75
2024/04/04 06:17:26;;;;;;;1.88;0.88;;;;;;;;;;4946727;28;92581;-76
2024/04/04 06:19:52;;;;;;;2.40;0.90;;;;;;;;;;4949376;28;94588;-73
2024/04/04 06:22:17;;;;;;;1.83;0.90;;;;;;;;;;4947730;28;92963;-74
2024/04/04 06:24:44;;;;;;;3.28;1.00;;;;;;;;;;4931684;28;93301;-74
2024/04/04 06:27:09;;;;;;;1.63;0.95;;;;;;;;;;4930207;28;95302;-75
2024/04/04 06:29:35;;;;;;;2.53;1.00;;;;;;;;;;4948938;28;93028;-75
2024/04/04 06:32:04;;;;;;;3.20;1.00;;;;;;;;;;4948697;28;94906;-75
2024/04/04 06:34:30;;;;;;;2.63;0.88;;;;;;;;;;4950208;28;95844;-75
2024/04/04 06:36:55;;;;;;;1.88;0.88;;;;;;;;;;4950881;28;92973;-75
2024/04/04 06:39:21;;;;;;;2.47;1.05;;;;;;;;;;4951680;28;92785;-75
2024/04/04 06:41:46;;;;;;;1.27;0.90;;;;;;;;;;4952734;28;93142;-75
2024/04/04 06:44:12;;;;;;;3.15;0.90;;;;;;;;;;4935768;28;92815;-75
2024/04/04 06:46:37;;;;;;;1.10;0.85;;;;;;;;;;4915223;28;95159;-75
2024/04/04 06:49:04;;;;;;;1.90;0.80;;;;;;;;;;4947607;28;92275;-75
2024/04/04 06:51:30;;;;;;;2.65;1.27;;;;;;;;;;4950945;28;93283;-75
2024/04/04 06:53:55;;;;;;;1.83;0.90;;;;;;;;;;4950190;28;92960;-75
2024/04/04 06:56:21;;;;;;;2.22;0.90;;;;;;;;;;4948668;28;95398;-75
2024/04/04 06:58:46;;;;;;;1.58;0.98;;;;;;;;;;4950097;28;94404;-75
2024/04/04 07:01:12;;;;;;;1.85;1.00;;;;;;;;;;4950779;28;94108;-76
2024/04/04 07:03:37;;;;;;;2.00;0.80;;;;;;;;;;4953723;28;92960;-76
2024/04/04 07:06:03;;;;;;;1.98;1.00;;;;;;;;;;4950174;28;93166;-76
2024/04/04 07:08:29;;;;;;;2.47;0.85;;;;;;;;;;4933311;28;92765;-75
2024/04/04 07:10:58;;;;;;;1.50;0.90;;;;;;;;;;4949012;28;95599;-75
2024/04/04 07:13:24;;;;;;;1.27;0.90;;;;;;;;;;4950448;28;92593;-75
2024/04/04 07:15:59;;;;;;;1.75;0.75;;;;;;;;;;4933747;28;92573;-75
2024/04/04 07:18:24;;;;;;;2.20;0.98;;;;;;;;;;4949603;28;93250;-75
2024/04/04 07:20:51;;;;;;;1.77;1.00;;;;;;;;;;4948167;28;95931;-75
2024/04/04 07:23:17;;;;;;;1.92;0.90;;;;;;;;;;4949964;28;100358;-75
2024/04/04 07:25:49;;;;;;;1.50;0.90;;;;;;;;;;4951817;28;95263;-75
2024/04/04 07:28:14;;;;;;;1.63;0.80;;;;;;;;;;4950623;28;92625;-75
2024/04/04 07:30:40;;;;;;;2.72;1.20;;;;;;;;;;4949758;28;92637;-75
2024/04/04 07:33:05;;;;;;;2.20;1.10;;;;;;;;;;4949469;28;93039;-75
2024/04/04 07:35:31;;;;;;;1.63;0.82;;;;;;;;;;4948236;28;93051;-75
2024/04/04 07:37:56;;;;;;;3.78;1.10;;;;;;;;;;4949128;28;93218;-75
2024/04/04 07:40:22;;;;;;;1.52;0.77;;;;;;;;;;4931809;28;99835;-75
2024/04/04 07:42:47;;;;;;;2.35;1.00;;;;;;;;;;4933362;28;93188;-75
2024/04/04 07:45:13;;;;;;;1.75;0.90;;;;;;;;;;4914522;28;94964;-76
2024/04/04 07:47:38;;;;;;;1.88;0.80;;;;;;;;;;4933325;28;93191;-76
2024/04/04 07:50:07;;;;;;;2.50;0.90;;;;;;;;;;4948991;28;92880;-75
2024/04/04 07:52:33;;;;;;;1.65;0.80;;;;;;;;;;4949297;28;94450;-76
2024/04/04 07:54:58;;;;;;;2.45;0.88;;;;;;;;;;4949728;28;93012;-76
2024/04/04 07:57:24;;;;;;;2.45;0.90;;;;;;;;;;4950418;28;92801;-74
2024/04/04 07:59:50;;;;;;;2.20;1.00;;;;;;;;;;4949912;28;92964;-75
2024/04/04 08:02:16;;;;;;;1.63;0.90;;;;;;;;;;4933986;28;91686;-75
2024/04/04 08:04:42;;;;;;;2.22;1.08;;;;;;;;;;4933593;28;93039;-74
2024/04/04 08:07:07;;;;;;;1.95;1.08;;;;;;;;;;4953365;28;94064;-75
2024/04/04 08:09:33;;;;;;;1.80;1.08;;;;;;;;;;4931245;28;95250;-74
2024/04/04 08:11:59;;;;;;;1.92;0.95;;;;;;;;;;4948931;28;93094;-74
2024/04/04 08:14:25;;;;;;;2.08;1.00;;;;;;;;;;4949179;28;92879;-74
2024/04/04 08:16:51;;;;;;;2.55;1.17;;;;;;;;;;4932964;28;92729;-74
2024/04/04 08:19:16;;;;;;;1.77;0.93;;;;;;;;;;4948614;28;92980;-74
2024/04/04 08:21:42;;;;;;;1.73;1.02;;;;;;;;;;4948995;28;93251;-74
2024/04/04 08:24:08;;;;;;;3.00;0.93;;;;;;;;;;4949401;28;92777;-74
2024/04/04 08:26:34;;;;;;;2.97;1.00;;;;;;;;;;4949777;28;92292;-74
2024/04/04 08:28:59;;;;;;;2.50;0.90;;;;;;;;;;4952154;28;92556;-74
2024/04/04 08:31:25;;;;;;;2.58;1.10;;;;;;;;;;4948901;28;93411;-74
2024/04/04 08:33:50;;;;;;;2.15;1.10;;;;;;;;;;4946255;28;95095;-74
2024/04/04 08:36:16;;;;;;;1.98;0.90;;;;;;;;;;4932800;28;94929;-76
2024/04/04 08:38:41;;;;;;;2.35;0.88;;;;;;;;;;4948291;28;93286;-75
2024/04/04 08:41:08;;;;;;;1.45;0.80;;;;;;;;;;4948844;28;93698;-75
2024/04/04 08:43:34;;;;;;;1.48;0.82;;;;;;;;;;4947512;28;92903;-75
2024/04/04 08:46:02;;;;;;;2.08;0.90;;;;;;;;;;4948350;28;94306;-75
2024/04/04 08:48:28;;;;;;;1.65;0.90;;;;;;;;;;4948884;28;92816;-75
2024/04/04 08:50:54;;;;;;;2.05;1.10;;;;;;;;;;4951154;28;92753;-75
2024/04/04 08:53:23;;;;;;;2.40;0.90;;;;;;;;;;4948337;28;92526;-76
2024/04/04 08:55:55;;;;;;;3.10;1.10;;;;;;;;;;4947160;28;92975;-76
2024/04/04 08:58:22;;;;;;;1.33;0.88;;;;;;;;;;4946613;28;95528;-76
2024/04/04 09:00:49;;;;;;;1.90;0.90;;;;;;;;;;4948272;28;92609;-76
2024/04/04 09:03:15;;;;;;;2.13;0.95;;;;;;;;;;4947837;28;92751;-76
2024/04/04 09:05:48;;;;;;;2.55;0.90;;;;;;;;;;4947682;28;93509;-75
2024/04/04 09:08:14;;;;;;;2.67;0.90;;;;;;;;;;4948610;28;92581;-75
2024/04/04 09:10:40;;;;;;;3.03;1.02;;;;;;;;;;4931653;28;92895;-76
2024/04/04 09:13:06;;;;;;;3.65;1.10;;;;;;;;;;4949401;28;93172;-76
2024/04/04 09:15:32;;;;;;;3.10;1.00;;;;;;;;;;4948055;28;92820;-76
2024/04/04 09:18:08;;;;;;;2.25;1.10;;;;;;;;;;4932051;28;93131;-76
2024/04/04 09:20:34;;;;;;;2.17;1.02;;;;;;;;;;4948573;28;92424;-76
2024/04/04 09:23:01;;;;;;;2.97;0.80;;;;;;;;;;4946722;28;95218;-76
2024/04/04 09:25:31;;;;;;;2.53;1.00;;;;;;;;;;4930595;28;93050;-76
2024/04/04 09:27:57;;;;;;;1.38;1.00;;;;;;;;;;4946885;28;92548;-76
2024/04/04 09:30:24;;;;;;;1.52;0.90;;;;;;;;;;4930603;28;93719;-76
2024/04/04 09:32:51;;;;;;;1.67;1.00;;;;;;;;;;4931651;28;93229;-76
2024/04/04 09:35:17;;;;;;;;;;;;;;;;;;4951919;28;92435;-76
2024/04/04 09:37:44;;;;;;;2.55;0.82;;;;;;;;;;4948988;28;93028;-76
2024/04/04 09:40:10;;;;;;;2.78;1.05;;;;;;;;;;4931985;28;91891;-76
2024/04/04 09:42:41;;;;;;;1.40;0.80;;;;;;;;;;4947103;28;92489;-76
2024/04/04 09:45:07;;;;;;;1.08;0.70;;;;;;;;;;4947117;28;93241;-76
2024/04/04 09:47:33;;;;;;;1.98;1.00;;;;;;;;;;4928028;28;95508;-76
2024/04/04 09:50:03;;;;;;;1.35;0.63;;;;;;;;;;4947101;28;95061;-76
2024/04/04 09:52:30;;;;;;;2.20;0.80;;;;;;;;;;4946926;28;93713;-76
2024/04/04 09:54:56;;;;;;;3.97;1.40;;;;;;;;;;4934275;28;93071;-76
2024/04/04 09:57:22;;;;;;;2.67;0.93;;;;;;;;;;4947134;28;93393;-75
2024/04/04 10:00:01;;;;;;;1.10;0.70;;;;;;;;;;4947730;28;92900;-75
2024/04/04 10:02:35;;;;;;;3.55;1.10;;;;;;;;;;4931590;28;96929;-76
2024/04/04 10:05:01;;;;;;;1.80;0.80;;;;;;;;;;4935832;28;92448;-76
2024/04/04 10:07:26;;;;;;;1.90;0.93;;;;;;;;;;4951203;28;92687;-76
2024/04/04 10:09:52;;;;;;;1.77;1.08;;;;;;;;;;4949584;28;100503;-75
2024/04/04 10:12:17;;;;;;;2.38;0.80;;;;;;;;;;4949578;28;96060;-75
2024/04/04 10:14:50;;;;;;;2.35;1.00;;;;;;;;;;4951428;28;92495;-75
2024/04/04 10:17:15;;;;;;;3.47;0.90;;;;;;;;;;4953630;28;92933;-74
2024/04/04 10:19:44;;;;;;;2.55;0.90;;;;;;;;;;4950414;28;92583;-74
2024/04/04 10:22:14;;;;;;;2.72;0.95;;;;;;;;;;4952260;28;92798;-74
2024/04/04 10:24:40;;;;;;;2.20;0.90;;;;;;;;;;4950347;28;93244;-75
2024/04/04 10:27:08;;;;;;;2.28;1.10;;;;;;;;;;4949884;28;92946;-74
2024/04/04 10:29:38;;;;;;;1.60;0.70;;;;;;;;;;4949816;28;92807;-74
2024/04/04 10:32:08;;;;;;;1.98;0.80;;;;;;;;;;4933622;28;95972;-74
2024/04/04 10:34:34;;;;;;;1.75;0.80;;;;;;;;;;4934511;28;92638;-74
2024/04/04 10:36:59;;;;;;;2.95;0.90;;;;;;;;;;4948929;28;95076;-74
2024/04/04 10:39:25;;;;;;;2.75;1.10;;;;;;;;;;4953565;28;92910;-74
2024/04/04 10:41:51;;;;;;;2.55;0.88;;;;;;;;;;4949444;28;92872;-74
2024/04/04 10:44:18;;;;;;;1.73;0.90;;;;;;;;;;4950357;28;92511;-75
2024/04/04 10:46:47;;;;;;;2.15;1.10;;;;;;;;;;4950911;28;92852;-74
2024/04/04 10:49:13;;;;;;;2.72;0.80;;;;;;;;;;4950675;28;93036;-74
2024/04/04 10:51:41;;;;;;;2.40;0.75;;;;;;;;;;4949653;28;94178;-74
2024/04/04 10:54:07;;;;;;;3.13;1.10;;;;;;;;;;4949747;28;92177;-75
2024/04/04 10:56:33;;;;;;;2.03;1.00;;;;;;;;;;4934684;28;92982;-76
2024/04/04 10:58:59;;;;;;;2.72;0.75;;;;;;;;;;4950279;28;92942;-75
2024/04/04 11:01:24;;;;;;;2.25;0.88;;;;;;;;;;4952079;28;95298;-76
2024/04/04 11:03:50;;;;;;;2.20;0.75;;;;;;;;;;4949943;28;93320;-74
2024/04/04 11:06:16;;;;;;;2.22;0.70;;;;;;;;;;4950220;28;93572;-75
2024/04/04 11:08:44;;;;;;;2.42;0.73;;;;;;;;;;4933382;28;95376;-75
2024/04/04 11:11:10;;;;;;;1.45;0.65;;;;;;;;;;4933432;28;94044;-75
2024/04/04 11:13:36;;;;;;;1.85;0.80;;;;;;;;;;4949230;28;92679;-75
2024/04/04 11:16:04;;;;;;;2.95;1.00;;;;;;;;;;4934242;28;92944;-75
2024/04/04 11:18:30;;;;;;;2.15;0.80;;;;;;;;;;4951153;28;92264;-75
2024/04/04 11:20:55;;;;;;;1.80;0.85;;;;;;;;;;4949654;28;92944;-75
2024/04/04 11:23:21;;;;;;;1.67;0.63;;;;;;;;;;4936329;28;93035;-75
2024/04/04 11:25:46;;;;;;;4.68;1.08;;;;;;;;;;4946947;28;94811;-75
2024/04/04 11:28:12;;;;;;;2.35;0.80;;;;;;;;;;4950513;28;95345;-75
2024/04/04 11:30:38;;;;;;;1.92;0.70;;;;;;;;;;4949535;28;94035;-75
2024/04/04 11:33:03;;;;;;;4.45;1.10;;;;;;;;;;4950429;28;92929;-75
2024/04/04 11:35:29;;;;;;;2.92;0.70;;;;;;;;;;4933201;28;94124;-75
2024/04/04 11:37:54;;;;;;;3.20;0.80;;;;;;;;;;4949961;28;92876;-75
2024/04/04 11:40:20;;;;;;;1.85;0.70;;;;;;;;;;4933767;28;92586;-75
2024/04/04 11:42:45;;;;;;;2.05;0.80;;;;;;;;;;4953452;28;93736;-75
2024/04/04 11:45:11;;;;;;;1.33;0.60;;;;;;;;;;4949515;28;92945;-75
2024/04/04 11:47:41;;;;;;;4.25;0.90;;;;;;;;;;4949134;28;92547;-75
2024/04/04 11:50:07;;;;;;;3.83;0.93;;;;;;;;;;4931906;28;95608;-75
2024/04/04 11:52:33;;;;;;;1.98;0.93;;;;;;;;;;4950341;28;92759;-76
2024/04/04 11:54:58;;;;;;;3.13;0.82;;;;;;;;;;4950049;28;92988;-75
2024/04/04 11:57:24;;;;;;;3.20;0.80;;;;;;;;;;4950222;28;93024;-75
2024/04/04 11:59:49;;;;;;;3.05;0.82;;;;;;;;;;4949082;28;93057;-75
2024/04/04 12:02:15;;;;;;;4.60;0.80;;;;;;;;;;4949167;28;92917;-76
2024/04/04 12:04:43;;;;;;;3.20;0.85;;;;;;;;;;4952242;28;93173;-75
2024/04/04 12:07:09;;;;;;;3.42;0.93;;;;;;;;;;4950496;28;92923;-75
2024/04/04 12:09:35;;;;;;;3.63;1.00;;;;;;;;;;4948664;28;93094;-76
2024/04/04 12:12:00;;;;;;;3.20;0.90;;;;;;;;;;4949210;28;92621;-75
2024/04/04 12:14:26;;;;;;;4.03;0.90;;;;;;;;;;4947877;28;95263;-75
2024/04/04 12:16:53;;;;;;;4.93;1.00;;;;;;;;;;4933437;28;92446;-75
2024/04/04 12:19:25;;;;;;;5.35;1.00;;;;;;;;;;4949731;28;92779;-76
2024/04/04 12:21:51;;;;;;;3.72;0.90;;;;;;;;;;4949222;28;92741;-76
2024/04/04 12:24:17;;;;;;;3.28;1.00;;;;;;;;;;4950895;28;96976;-75
2024/04/04 12:26:43;;;;;;;3.78;1.00;;;;;;;;;;4937975;28;93116;-75
2024/04/04 12:29:09;;;;;;;4.00;0.90;;;;;;;;;;4950919;28;95149;-76
2024/04/04 12:31:35;;;;;;;2.67;0.90;;;;;;;;;;4935478;28;91749;-76
2024/04/04 12:34:00;;;;;;;2.85;0.85;;;;;;;;;;4951184;28;92583;-75
2024/04/04 12:36:26;;;;;;;4.47;0.95;;;;;;;;;;4950972;28;93051;-75
2024/04/04 12:38:51;;;;;;;2.40;0.80;;;;;;;;;;4948035;28;94903;-75
2024/04/04 12:41:17;;;;;;;3.33;0.90;;;;;;;;;;4911237;28;95331;-75
2024/04/04 12:43:46;;;;;;;4.97;0.95;;;;;;;;;;4946296;28;93166;-75
2024/04/04 12:46:11;;;;;;;4.75;0.90;;;;;;;;;;4947533;28;92893;-75
2024/04/04 12:48:37;;;;;;;3.03;1.00;;;;;;;;;;4951825;28;92890;-75
2024/04/04 12:51:02;;;;;;;4.13;0.93;;;;;;;;;;4949316;28;93229;-75
2024/04/04 12:53:28;;;;;;;3.42;0.80;;;;;;;;;;4949375;28;93964;-75
2024/04/04 12:55:54;;;;;;;2.53;0.90;;;;;;;;;;4949227;28;92836;-75
2024/04/04 12:58:19;;;;;;;3.47;1.10;;;;;;;;;;4949168;28;92584;-75
2024/04/04 13:00:45;;;;;;;4.45;0.90;;;;;;;;;;4947956;28;92859;-74
2024/04/04 13:03:10;;;;;;;2.70;1.10;;;;;;;;;;4946325;28;95769;-75
2024/04/04 13:05:37;;;;;;;3.50;1.00;;;;;;;;;;4947248;28;92619;-75
2024/04/04 13:08:03;;;;;;;4.55;1.00;;;;;;;;;;4948809;28;93406;-76
2024/04/04 13:10:28;;;;;;;3.10;0.88;;;;;;;;;;4951669;28;93984;-75
2024/04/04 13:12:54;;;;;;;3.35;0.80;;;;;;;;;;4933166;28;92651;-76
2024/04/04 13:15:20;;;;;;;3.55;0.90;;;;;;;;;;4947984;28;93076;-75
2024/04/04 13:17:46;;;;;;;4.10;1.13;;;;;;;;;;4947400;28;92827;-75
2024/04/04 13:20:12;;;;;;;6.03;1.20;;;;;;;;;;4948915;28;93143;-75
2024/04/04 13:22:37;;;;;;;6.40;1.15;;;;;;;;;;4932524;28;92591;-76
2024/04/04 13:25:03;;;;;;;5.43;0.98;;;;;;;;;;4948289;28;92528;-76
2024/04/04 13:27:29;;;;;;;4.97;0.98;;;;;;;;;;4946620;28;94958;-75
2024/04/04 13:29:54;;;;;;;4.65;1.08;;;;;;;;;;4947769;28;93052;-76
2024/04/04 13:32:21;;;;;;;4.10;1.20;;;;;;;;;;4951566;28;92835;-76
2024/04/04 13:34:46;;;;;;;4.80;1.00;;;;;;;;;;4931811;28;95322;-76
2024/04/04 13:37:13;;;;;;;4.07;0.85;;;;;;;;;;4947350;28;93789;-75
2024/04/04 13:39:38;;;;;;;3.78;1.00;;;;;;;;;;4947438;28;92811;-76
2024/04/04 13:42:05;;;;;;;4.70;1.58;;;;;;;;;;4946917;28;93605;-75
2024/04/04 13:44:31;;;;;;;5.45;1.33;;;;;;;;;;4948566;28;92409;-75
2024/04/04 13:46:56;;;;;;;5.00;1.02;;;;;;;;;;4947715;28;92852;-75
2024/04/04 13:49:22;;;;;;;6.50;1.40;;;;;;;;;;4947614;28;93187;-75
2024/04/04 13:51:47;;;;;;;4.65;1.10;;;;;;;;;;4949337;28;94982;-75
2024/04/04 13:54:13;;;;;;;5.55;1.10;;;;;;;;;;4948241;28;92989;-76
2024/04/04 13:56:39;;;;;;;4.28;1.10;;;;;;;;;;4948236;28;93043;-76
2024/04/04 13:59:04;;;;;;;5.32;1.35;;;;;;;;;;4947712;28;93149;-76
2024/04/04 14:01:33;;;;;;;5.53;1.20;;;;;;;;;;4930810;28;92661;-75
2024/04/04 14:03:58;;;;;;;6.30;1.10;;;;;;;;;;4947295;28;93022;-75
2024/04/04 14:06:24;;;;;;;6.68;1.27;;;;;;;;;;4947761;28;92852;-76
2024/04/04 14:08:50;;;;;;;4.75;0.95;;;;;;;;;;4948079;28;93101;-76
2024/04/04 14:11:16;;;;;;;4.85;1.20;;;;;;;;;;4947218;28;93130;-75
2024/04/04 14:13:41;;;;;;;5.90;1.33;;;;;;;;;;4949634;28;93180;-76
2024/04/04 14:16:07;;;;;;;5.65;1.10;;;;;;;;;;4946288;28;94953;-75
2024/04/04 14:18:32;;;;;;;6.20;1.10;;;;;;;;;;4931682;28;95138;-75
2024/04/04 14:20:58;;;;;;;4.80;1.10;;;;;;;;;;4931335;28;93197;-75
2024/04/04 14:23:23;;;;;;;5.03;1.00;;;;;;;;;;4947684;28;92916;-76
2024/04/04 14:25:49;;;;;;;4.50;0.90;;;;;;;;;;4946819;28;92868;-76
2024/04/04 14:28:14;;;;;;;5.93;1.20;;;;;;;;;;4931015;28;93075;-76
2024/04/04 14:30:40;;;;;;;7.22;1.27;;;;;;;;;;4947325;28;92841;-76
2024/04/04 14:33:06;;;;;;;7.40;1.40;;;;;;;;;;4898749;28;94080;-76
2024/04/04 14:35:32;;;;;;;4.68;1.10;;;;;;;;;;4939644;28;93305;-75
2024/04/04 14:37:58;;;;;;;5.68;1.00;;;;;;;;;;4947738;28;93338;-76